createdAt,value
2023-01-17T00:00:33.071Z,78.17
2023-01-17T00:03:05.083Z,78.10
2023-01-17T00:05:59.483Z,78.20
2023-01-17T00:08:50.234Z,78.00
2023-01-17T00:11:22.095Z,78.26
2023-01-17T00:13:54.033Z,79.23
2023-01-17T00:16:26.041Z,78.98
2023-01-17T00:19:16.791Z,78.82
2023-01-17T00:22:07.090Z,78.99
2023-01-17T00:24:57.750Z,78.51
2023-01-17T00:27:30.954Z,78.95
2023-01-17T00:30:02.882Z,78.91
2023-01-17T00:32:34.688Z,78.74
2023-01-17T00:35:06.874Z,78.57
2023-01-17T00:37:38.839Z,78.51
2023-01-17T00:40:11.200Z,78.44
2023-01-17T00:42:43.027Z,78.25
2023-01-17T00:45:33.660Z,78.53
2023-01-17T00:48:24.363Z,78.30
2023-01-17T00:51:15.097Z,78.59
2023-01-17T00:54:05.725Z,78.48
2023-01-17T00:56:56.354Z,78.65
2023-01-17T00:59:47.033Z,78.53
2023-01-17T01:02:37.738Z,78.52
2023-01-17T01:05:29.675Z,78.30
2023-01-17T01:08:20.872Z,78.62
2023-01-17T01:11:11.615Z,78.74
2023-01-17T01:14:02.423Z,78.75
2023-01-17T01:16:52.958Z,78.68
2023-01-17T01:19:43.524Z,78.67
2023-01-17T01:22:34.401Z,78.63
2023-01-17T01:25:24.826Z,78.84
2023-01-17T01:28:26.353Z,78.46
2023-01-17T01:31:24.160Z,78.51
2023-01-17T01:33:56.068Z,78.41
2023-01-17T01:36:28.039Z,78.37
2023-01-17T01:39:00.382Z,78.42
2023-01-17T01:41:32.326Z,78.63
2023-01-17T01:44:04.564Z,78.78
2023-01-17T01:46:41.666Z,78.73
2023-01-17T01:49:25.001Z,78.82
2023-01-17T01:52:01.765Z,78.81
2023-01-17T01:54:44.347Z,78.35
2023-01-17T01:57:20.729Z,78.54
2023-01-17T01:59:58.398Z,78.54
2023-01-17T02:02:31.777Z,78.28
2023-01-17T02:05:04.899Z,78.56
2023-01-17T02:08:01.963Z,78.27
2023-01-17T02:10:39.881Z,78.48
2023-01-17T02:13:14.794Z,78.00
2023-01-17T02:16:13.521Z,78.29
2023-01-17T02:19:13.380Z,78.05
2023-01-17T02:22:14.225Z,78.18
2023-01-17T02:25:15.692Z,78.38
2023-01-17T02:27:53.503Z,78.07
2023-01-17T02:30:56.912Z,78.07
2023-01-17T02:33:47.993Z,78.46
2023-01-17T02:37:07.233Z,78.18
2023-01-17T02:39:47.283Z,78.08
2023-01-17T02:42:22.315Z,77.93
2023-01-17T02:44:54.163Z,78.28
2023-01-17T02:47:31.655Z,78.18
2023-01-17T02:50:16.159Z,77.80
2023-01-17T02:53:09.896Z,77.78
2023-01-17T02:56:23.590Z,77.62
2023-01-17T02:59:33.546Z,77.68
2023-01-17T03:02:35.717Z,77.94
2023-01-17T03:05:13.956Z,78.14
2023-01-17T03:07:48.554Z,77.82
2023-01-17T03:10:21.223Z,77.59
2023-01-17T03:12:57.993Z,77.60
2023-01-17T03:15:29.872Z,77.34
2023-01-17T03:18:08.122Z,77.58
2023-01-17T03:20:40.243Z,77.51
2023-01-17T03:23:12.218Z,77.53
2023-01-17T03:25:44.186Z,77.62
2023-01-17T03:28:16.300Z,77.53
2023-01-17T03:30:48.403Z,77.60
2023-01-17T03:33:20.650Z,77.56
2023-01-17T03:35:53.173Z,77.11
2023-01-17T03:38:26.572Z,77.11
2023-01-17T03:40:58.699Z,77.09
2023-01-17T03:43:31.315Z,77.23
2023-01-17T03:46:17.610Z,76.94
2023-01-17T03:48:50.447Z,77.14
2023-01-17T03:51:22.435Z,77.19
2023-01-17T03:53:54.664Z,76.95
2023-01-17T03:56:26.828Z,76.94
2023-01-17T03:58:58.886Z,76.92
2023-01-17T04:01:31.195Z,77.17
2023-01-17T04:04:03.243Z,77.12
2023-01-17T04:06:35.236Z,77.06
2023-01-17T04:09:07.316Z,77.38
2023-01-17T04:11:40.797Z,77.17
2023-01-17T04:14:12.783Z,77.13
2023-01-17T04:16:45.083Z,77.18
2023-01-17T04:19:17.742Z,77.03
2023-01-17T04:21:49.910Z,77.08
2023-01-17T04:24:21.845Z,76.93
2023-01-17T04:26:53.834Z,77.32
2023-01-17T04:29:25.876Z,77.28
2023-01-17T04:31:57.834Z,77.00
2023-01-17T04:34:29.785Z,77.29
2023-01-17T04:37:01.880Z,77.33
2023-01-17T04:39:33.813Z,77.31
2023-01-17T04:42:05.931Z,77.29
2023-01-17T04:44:37.927Z,77.40
2023-01-17T04:47:09.833Z,77.42
2023-01-17T04:49:44.070Z,77.42
2023-01-17T04:52:18.953Z,77.17
2023-01-17T04:54:51.052Z,77.16
2023-01-17T04:57:23.120Z,77.25
2023-01-17T04:59:55.064Z,77.38
2023-01-17T05:02:27.211Z,77.31
2023-01-17T05:04:59.178Z,77.35
2023-01-17T05:07:31.190Z,77.17
2023-01-17T05:10:04.832Z,77.40
2023-01-17T05:12:36.789Z,77.49
2023-01-17T05:15:09.035Z,77.25
2023-01-17T05:17:41.026Z,77.40
2023-01-17T05:20:12.973Z,77.55
2023-01-17T05:22:45.236Z,77.45
2023-01-17T05:25:17.243Z,77.37
2023-01-17T05:27:49.634Z,77.22
2023-01-17T05:30:23.109Z,77.25
2023-01-17T05:32:56.562Z,77.57
2023-01-17T05:35:33.077Z,77.00
2023-01-17T05:38:05.306Z,77.19
2023-01-17T05:40:40.404Z,77.03
2023-01-17T05:43:12.390Z,77.12
2023-01-17T05:45:44.366Z,77.19
2023-01-17T05:48:16.488Z,77.38
2023-01-17T05:50:48.477Z,77.29
2023-01-17T05:53:20.730Z,77.60
2023-01-17T05:55:53.400Z,77.50
2023-01-17T05:58:25.371Z,77.87
2023-01-17T06:00:57.526Z,77.92
2023-01-17T06:03:29.891Z,77.51
2023-01-17T06:06:01.767Z,77.78
2023-01-17T06:08:33.772Z,77.50
2023-01-17T06:11:05.787Z,77.70
2023-01-17T06:13:37.703Z,77.76
2023-01-17T06:16:09.800Z,78.04
2023-01-17T06:18:41.656Z,77.88
2023-01-17T06:21:13.587Z,77.92
2023-01-17T06:23:45.447Z,78.09
2023-01-17T06:26:17.402Z,77.67
2023-01-17T06:28:49.326Z,77.77
2023-01-17T06:31:21.409Z,77.76
2023-01-17T06:33:53.770Z,77.61
2023-01-17T06:36:25.720Z,77.71
2023-01-17T06:38:57.603Z,77.66
2023-01-17T06:41:29.483Z,77.74
2023-01-17T06:44:01.478Z,77.84
2023-01-17T06:46:33.492Z,77.82
2023-01-17T06:49:05.991Z,78.16
2023-01-17T06:51:37.908Z,78.11
2023-01-17T06:54:10.431Z,78.21
2023-01-17T06:56:42.446Z,78.25
2023-01-17T06:59:14.387Z,78.16
2023-01-17T07:01:46.434Z,78.34
2023-01-17T07:04:18.421Z,78.39
2023-01-17T07:06:50.765Z,78.26
2023-01-17T07:09:22.788Z,78.14
2023-01-17T07:11:59.994Z,78.15
2023-01-17T07:14:32.090Z,78.53
2023-01-17T07:17:04.558Z,78.21
2023-01-17T07:19:36.549Z,78.17
2023-01-17T07:22:11.045Z,78.36
2023-01-17T07:24:43.003Z,78.13
2023-01-17T07:27:14.913Z,78.17
2023-01-17T07:29:46.754Z,78.12
2023-01-17T07:32:18.770Z,77.88
2023-01-17T07:34:51.240Z,77.93
2023-01-17T07:37:23.618Z,77.89
2023-01-17T07:39:55.615Z,77.79
2023-01-17T07:42:27.612Z,77.86
2023-01-17T07:45:00.991Z,77.67
2023-01-17T07:47:34.320Z,77.76
2023-01-17T07:50:07.757Z,77.78
2023-01-17T07:52:39.754Z,77.54
2023-01-17T07:55:11.704Z,77.24
2023-01-17T07:57:43.642Z,77.05
2023-01-17T08:00:16.044Z,76.98
2023-01-17T08:02:47.950Z,77.12
2023-01-17T08:05:19.860Z,76.67
2023-01-17T08:07:52.403Z,76.67
2023-01-17T08:10:24.517Z,76.51
2023-01-17T08:12:56.487Z,76.32
2023-01-17T08:15:28.576Z,76.10
2023-01-17T08:18:00.754Z,76.19
2023-01-17T08:20:32.752Z,76.05
2023-01-17T08:23:04.734Z,75.89
2023-01-17T08:25:36.884Z,75.91
2023-01-17T08:28:08.863Z,75.91
2023-01-17T08:30:41.349Z,75.55
2023-01-17T08:33:13.324Z,75.68
2023-01-17T08:35:53.175Z,75.47
2023-01-17T08:38:25.899Z,75.41
2023-01-17T08:41:01.203Z,75.43
2023-01-17T08:43:33.535Z,75.40
2023-01-17T08:46:06.581Z,75.26
2023-01-17T08:48:38.576Z,75.00
2023-01-17T08:51:11.309Z,75.00
2023-01-17T08:53:43.358Z,74.80
2023-01-17T08:56:15.292Z,74.52
2023-01-17T08:58:47.298Z,74.34
2023-01-17T09:01:19.446Z,74.73
2023-01-17T09:03:54.247Z,74.37
2023-01-17T09:06:26.236Z,74.39
2023-01-17T09:09:00.956Z,73.85
2023-01-17T09:11:33.144Z,74.00
2023-01-17T09:14:05.062Z,73.41
2023-01-17T09:16:37.007Z,73.08
2023-01-17T09:19:09.746Z,73.03
2023-01-17T09:21:41.703Z,73.20
2023-01-17T09:24:13.895Z,73.15
2023-01-17T09:26:46.069Z,73.29
2023-01-17T09:29:19.074Z,72.98
2023-01-17T09:31:51.239Z,73.61
2023-01-17T09:34:24.689Z,73.22
2023-01-17T09:36:57.328Z,72.98
2023-01-17T09:39:29.322Z,72.96
2023-01-17T09:42:34.717Z,72.52
2023-01-17T09:45:16.727Z,72.58
2023-01-17T09:47:54.089Z,72.46
2023-01-17T09:50:44.244Z,72.77
2023-01-17T09:53:21.181Z,72.41
2023-01-17T09:55:55.736Z,71.73
2023-01-17T09:58:46.755Z,72.43
2023-01-17T10:01:56.965Z,72.20
2023-01-17T10:04:49.396Z,72.24
2023-01-17T10:07:43.500Z,72.20
2023-01-17T10:10:30.528Z,71.90
2023-01-17T10:13:38.970Z,72.04
2023-01-17T10:16:19.959Z,72.21
2023-01-17T10:18:54.896Z,71.98
2023-01-17T10:21:38.701Z,71.69
2023-01-17T10:24:38.278Z,71.57
2023-01-17T10:27:22.272Z,71.20
2023-01-17T10:29:54.673Z,71.26
2023-01-17T10:32:33.308Z,71.21
2023-01-17T10:35:17.729Z,70.85
2023-01-17T10:37:52.618Z,70.95
2023-01-17T10:40:46.773Z,70.96
2023-01-17T10:44:00.043Z,70.88
2023-01-17T10:46:41.590Z,70.74
2023-01-17T10:49:19.235Z,70.63
2023-01-17T10:52:12.440Z,70.78
2023-01-17T10:54:47.131Z,70.44
2023-01-17T10:57:25.037Z,70.29
2023-01-17T11:00:01.475Z,70.51
2023-01-17T11:02:40.241Z,70.37
2023-01-17T11:05:21.878Z,70.00
2023-01-17T11:08:05.177Z,69.94
2023-01-17T11:10:54.414Z,70.16
2023-01-17T11:13:37.011Z,69.90
2023-01-17T11:16:22.081Z,70.07
2023-01-17T11:19:17.658Z,69.76
2023-01-17T11:21:56.258Z,69.48
2023-01-17T11:24:58.570Z,69.66
2023-01-17T11:27:35.658Z,70.09
2023-01-17T11:30:17.245Z,69.91
2023-01-17T11:32:59.222Z,69.71
2023-01-17T11:35:33.466Z,69.82
2023-01-17T11:38:22.247Z,69.52
2023-01-17T11:41:14.404Z,69.33
2023-01-17T11:43:57.971Z,69.50
2023-01-17T11:46:30.322Z,69.11
2023-01-17T11:49:02.305Z,70.25
2023-01-17T11:51:41.647Z,69.59
2023-01-17T11:54:39.294Z,69.51
2023-01-17T11:57:25.172Z,69.52
2023-01-17T12:00:22.660Z,69.14
2023-01-17T12:03:25.428Z,69.31
2023-01-17T12:06:19.762Z,68.81
2023-01-17T12:09:32.366Z,68.82
2023-01-17T12:12:42.801Z,69.02
2023-01-17T12:15:36.882Z,69.18
2023-01-17T12:18:36.438Z,69.25
2023-01-17T12:21:31.026Z,69.10
2023-01-17T12:24:41.858Z,68.62
2023-01-17T12:27:28.726Z,68.51
2023-01-17T12:30:22.331Z,68.69
2023-01-17T12:33:02.938Z,68.57
2023-01-17T12:35:45.347Z,68.28
2023-01-17T12:38:32.624Z,68.58
2023-01-17T12:41:32.145Z,68.76
2023-01-17T12:44:04.126Z,68.34
2023-01-17T12:46:49.727Z,68.04
2023-01-17T12:49:58.350Z,67.81
2023-01-17T12:52:45.381Z,67.98
2023-01-17T12:55:26.267Z,68.04
2023-01-17T12:58:01.993Z,68.08
2023-01-17T13:00:38.110Z,68.28
2023-01-17T13:03:40.171Z,68.18
2023-01-17T13:06:22.310Z,67.92
2023-01-17T13:08:58.552Z,67.55
2023-01-17T13:11:41.483Z,67.27
2023-01-17T13:14:13.432Z,66.84
2023-01-17T13:16:54.127Z,66.83
2023-01-17T13:19:47.463Z,66.24
2023-01-17T13:22:23.335Z,66.23
2023-01-17T13:25:36.535Z,65.61
2023-01-17T13:28:29.798Z,66.18
2023-01-17T13:31:27.710Z,66.02
2023-01-17T13:34:08.915Z,66.34
2023-01-17T13:37:05.162Z,66.66
2023-01-17T13:39:52.440Z,66.81
2023-01-17T13:42:39.303Z,66.74
2023-01-17T13:45:20.567Z,66.46
2023-01-17T13:47:54.209Z,67.00
2023-01-17T13:50:41.280Z,67.76
2023-01-17T13:53:39.463Z,67.52
2023-01-17T13:56:11.365Z,67.67
2023-01-17T13:58:50.627Z,67.90
2023-01-17T14:01:43.383Z,67.85
2023-01-17T14:04:15.490Z,68.45
2023-01-17T14:06:56.870Z,68.32
2023-01-17T14:09:42.236Z,68.25
2023-01-17T14:12:15.406Z,68.54
2023-01-17T14:14:50.831Z,68.63
2023-01-17T14:17:23.346Z,68.72
2023-01-17T14:20:19.332Z,68.65
2023-01-17T14:23:29.915Z,69.22
2023-01-17T14:26:21.678Z,69.03
2023-01-17T14:28:54.649Z,69.43
2023-01-17T14:31:28.274Z,69.56
2023-01-17T14:34:14.317Z,69.40
2023-01-17T14:36:46.342Z,69.92
2023-01-17T14:39:23.055Z,70.07
2023-01-17T14:41:55.120Z,70.29
2023-01-17T14:44:27.097Z,70.54
2023-01-17T14:46:59.268Z,70.79
2023-01-17T14:49:31.273Z,70.84
2023-01-17T14:52:06.544Z,70.93
2023-01-17T14:54:47.774Z,71.29
2023-01-17T14:57:29.458Z,71.42
2023-01-17T15:00:15.667Z,71.68
2023-01-17T15:02:49.302Z,71.81
2023-01-17T15:05:24.835Z,71.90
2023-01-17T15:07:58.516Z,72.05
2023-01-17T15:10:33.190Z,72.53
2023-01-17T15:13:10.842Z,73.02
2023-01-17T15:15:43.057Z,72.82
2023-01-17T15:18:14.970Z,73.44
2023-01-17T15:21:09.360Z,73.52
2023-01-17T15:23:46.523Z,73.55
2023-01-17T15:26:23.264Z,73.60
2023-01-17T15:29:05.516Z,73.71
2023-01-17T15:31:50.257Z,73.50
2023-01-17T15:34:37.429Z,74.68
2023-01-17T15:37:30.801Z,74.32
2023-01-17T15:40:04.965Z,74.11
2023-01-17T15:42:42.653Z,74.23
2023-01-17T15:45:20.160Z,74.45
2023-01-17T15:47:52.140Z,74.52
2023-01-17T15:50:30.857Z,74.51
2023-01-17T15:53:06.052Z,74.63
2023-01-17T15:55:39.728Z,74.50
2023-01-17T15:58:27.508Z,74.57
2023-01-17T16:00:59.638Z,74.87
2023-01-17T16:03:31.634Z,74.72
2023-01-17T16:06:04.847Z,75.05
2023-01-17T16:08:40.274Z,74.86
2023-01-17T16:11:13.377Z,74.89
2023-01-17T16:13:47.640Z,74.91
2023-01-17T16:16:23.637Z,75.05
2023-01-17T16:19:01.014Z,75.12
2023-01-17T16:21:33.116Z,75.23
2023-01-17T16:24:06.313Z,75.25
2023-01-17T16:26:38.286Z,75.31
2023-01-17T16:29:10.511Z,75.18
2023-01-17T16:31:42.440Z,75.30
2023-01-17T16:34:14.406Z,75.77
2023-01-17T16:36:46.380Z,75.77
2023-01-17T16:39:18.319Z,75.85
2023-01-17T16:41:50.180Z,75.65
2023-01-17T16:44:22.156Z,75.57
2023-01-17T16:46:54.132Z,75.77
2023-01-17T16:49:26.216Z,75.82
2023-01-17T16:51:59.238Z,75.90
2023-01-17T16:54:32.175Z,75.89
2023-01-17T16:57:04.113Z,75.89
2023-01-17T16:59:49.839Z,75.81
2023-01-17T17:02:23.356Z,76.02
2023-01-17T17:04:55.385Z,76.06
2023-01-17T17:07:27.543Z,75.91
2023-01-17T17:09:59.532Z,76.06
2023-01-17T17:12:32.524Z,76.41
2023-01-17T17:15:04.904Z,76.29
2023-01-17T17:17:38.354Z,76.14
2023-01-17T17:20:13.148Z,76.27
2023-01-17T17:22:50.819Z,76.61
2023-01-17T17:25:22.883Z,76.77
2023-01-17T17:27:55.065Z,76.79
2023-01-17T17:30:27.631Z,77.12
2023-01-17T17:32:59.759Z,76.90
2023-01-17T17:35:34.962Z,77.17
2023-01-17T17:38:08.192Z,77.48
2023-01-17T17:40:40.052Z,77.44
2023-01-17T17:43:12.065Z,77.29
2023-01-17T17:45:43.988Z,76.92
2023-01-17T17:48:15.991Z,76.93
2023-01-17T17:50:59.402Z,76.89
2023-01-17T17:53:32.079Z,77.07
2023-01-17T17:56:06.042Z,77.06
2023-01-17T17:58:38.008Z,76.83
2023-01-17T18:01:09.920Z,77.15
2023-01-17T18:03:41.875Z,77.33
2023-01-17T18:06:14.070Z,77.07
2023-01-17T18:08:46.354Z,77.11
2023-01-17T18:11:22.074Z,77.85
2023-01-17T18:13:55.678Z,77.99
2023-01-17T18:16:35.995Z,77.98
2023-01-17T18:19:12.167Z,78.73
2023-01-17T18:21:44.615Z,78.81
2023-01-17T18:24:18.827Z,78.78
2023-01-17T18:26:53.542Z,78.86
2023-01-17T18:29:27.459Z,78.76
2023-01-17T18:31:59.500Z,78.84
2023-01-17T18:34:31.543Z,79.20
2023-01-17T18:37:03.494Z,79.06
2023-01-17T18:39:35.451Z,79.08
2023-01-17T18:42:07.988Z,79.03
2023-01-17T18:44:40.025Z,79.02
2023-01-17T18:47:13.338Z,79.35
2023-01-17T18:49:45.258Z,79.63
2023-01-17T18:52:19.770Z,79.02
2023-01-17T18:54:51.673Z,79.17
2023-01-17T18:57:24.456Z,79.29
2023-01-17T18:59:57.484Z,79.34
2023-01-17T19:02:29.473Z,79.36
2023-01-17T19:05:05.872Z,78.98
2023-01-17T19:07:37.802Z,79.04
2023-01-17T19:10:10.346Z,78.85
2023-01-17T19:12:42.326Z,78.90
2023-01-17T19:15:14.403Z,78.91
2023-01-17T19:17:46.328Z,78.80
2023-01-17T19:20:19.296Z,79.04
2023-01-17T19:22:51.565Z,79.20
2023-01-17T19:25:25.924Z,79.27
2023-01-17T19:27:58.628Z,79.45
2023-01-17T19:30:34.625Z,79.20
2023-01-17T19:33:06.817Z,79.34
2023-01-17T19:35:38.715Z,79.54
2023-01-17T19:38:10.593Z,79.18
2023-01-17T19:40:42.552Z,79.08
2023-01-17T19:43:14.483Z,78.90
2023-01-17T19:45:55.962Z,79.15
2023-01-17T19:48:28.513Z,79.01
2023-01-17T19:51:18.571Z,78.92
2023-01-17T19:53:50.827Z,78.90
2023-01-17T19:56:25.311Z,78.79
2023-01-17T19:59:01.514Z,79.13
2023-01-17T20:01:34.722Z,78.76
2023-01-17T20:04:06.776Z,78.84
2023-01-17T20:06:38.764Z,78.86
2023-01-17T20:09:11.084Z,78.46
2023-01-17T20:11:43.558Z,78.71
2023-01-17T20:14:16.802Z,78.41
2023-01-17T20:16:49.945Z,78.38
2023-01-17T20:19:21.948Z,78.43
2023-01-17T20:21:54.400Z,78.29
2023-01-17T20:24:26.499Z,78.44
2023-01-17T20:26:58.382Z,78.23
2023-01-17T20:29:30.453Z,78.11
2023-01-17T20:32:02.495Z,78.10
2023-01-17T20:34:34.443Z,78.07
2023-01-17T20:37:08.991Z,78.23
2023-01-17T20:39:41.428Z,77.80
2023-01-17T20:42:13.400Z,77.87
2023-01-17T20:44:45.831Z,77.90
2023-01-17T20:47:18.502Z,77.69
2023-01-17T20:49:50.427Z,77.63
2023-01-17T20:52:22.416Z,77.97
2023-01-17T20:54:54.439Z,78.03
2023-01-17T20:57:26.361Z,77.95
2023-01-17T20:59:58.407Z,78.20
2023-01-17T21:02:30.479Z,78.23
2023-01-17T21:05:04.008Z,78.43
2023-01-17T21:07:35.981Z,78.18
2023-01-17T21:10:08.363Z,78.32
2023-01-17T21:12:40.860Z,78.37
2023-01-17T21:15:17.716Z,78.39
2023-01-17T21:17:49.691Z,78.28
2023-01-17T21:20:21.617Z,78.06
2023-01-17T21:22:53.558Z,78.57
2023-01-17T21:25:25.489Z,78.64
2023-01-17T21:27:57.740Z,78.70
2023-01-17T21:30:29.950Z,78.51
2023-01-17T21:33:01.979Z,78.58
2023-01-17T21:35:33.966Z,78.51
2023-01-17T21:38:06.213Z,78.72
2023-01-17T21:40:38.416Z,78.85
2023-01-17T21:43:10.987Z,78.95
2023-01-17T21:45:43.128Z,78.61
2023-01-17T21:48:15.144Z,78.42
2023-01-17T21:50:47.663Z,78.60
2023-01-17T21:53:19.683Z,79.06
2023-01-17T21:56:10.101Z,79.16
2023-01-17T21:58:45.115Z,80.23
2023-01-17T22:01:18.891Z,80.36
2023-01-17T22:04:10.405Z,80.51
2023-01-17T22:06:42.325Z,80.06
2023-01-17T22:09:15.390Z,80.55
2023-01-17T22:11:47.427Z,81.11
2023-01-17T22:14:19.827Z,81.09
2023-01-17T22:16:52.031Z,81.69
2023-01-17T22:19:23.968Z,81.25
2023-01-17T22:21:55.923Z,81.73
2023-01-17T22:24:27.880Z,82.13
2023-01-17T22:26:59.873Z,81.94
2023-01-17T22:29:34.280Z,82.31
2023-01-17T22:32:06.274Z,82.16
2023-01-17T22:34:38.205Z,81.76
2023-01-17T22:37:10.371Z,81.24
2023-01-17T22:39:42.357Z,81.07
2023-01-17T22:42:15.549Z,80.54
2023-01-17T22:44:48.176Z,80.34
2023-01-17T22:47:20.131Z,80.27
2023-01-17T22:49:52.106Z,80.64
2023-01-17T22:52:24.185Z,80.61
2023-01-17T22:54:56.673Z,80.42
2023-01-17T22:57:28.682Z,79.98
2023-01-17T23:00:00.604Z,79.93
2023-01-17T23:02:32.551Z,80.10
2023-01-17T23:05:04.704Z,79.71
2023-01-17T23:07:46.755Z,80.21
2023-01-17T23:10:38.730Z,80.52
2023-01-17T23:13:10.767Z,80.53
2023-01-17T23:16:01.701Z,79.96
2023-01-17T23:18:52.361Z,79.69
2023-01-17T23:21:44.262Z,80.55
2023-01-17T23:24:16.254Z,80.92
2023-01-17T23:27:08.116Z,80.77
2023-01-17T23:29:40.102Z,80.89
2023-01-17T23:32:12.251Z,81.11
2023-01-17T23:34:44.214Z,80.98
2023-01-17T23:37:16.221Z,81.10
2023-01-17T23:39:48.193Z,81.38
2023-01-17T23:42:38.772Z,82.00
2023-01-17T23:45:10.843Z,81.93
2023-01-17T23:47:45.245Z,82.02
2023-01-17T23:50:17.233Z,81.63
2023-01-17T23:52:49.100Z,81.39
2023-01-17T23:55:20.959Z,81.94
2023-01-17T23:57:53.061Z,82.31
